MMPR/PVR METAR and TAF weather

Enter ICAO airport designator
Station Type Date Time Source
MMPR METAR 2021/07/30 01:50 UTC NOAA

MMPR 300150Z 00000KT 12SM FEW025 BKN120 30/25 A2982 RMK 8/120 MSGTX MMMX


Station Type Date Time Source
MMPR Decoded METAR 2021/07/30 01:50 UTC NOAA

Puerto Vallarta / Lic, Mexico (MMPR) 20-41N 105-15W
Jul 29, 2021 - 09:50 PM EDT / 2021.07.30 0150 UTC
Wind: Calm:0
Visibility: 12 mile(s):0
Sky conditions: mostly cloudy
Temperature: 86 F (30 C)
Heat index: 96.8 F (36.0 C):1
Dew Point: 77 F (25 C)
Relative Humidity: 74%
Pressure (altimeter): 29.82 in. Hg (1009 hPa)
ob: MMPR 300150Z 00000KT 12SM FEW025 BKN120 30/25 A2982 RMK 8/120 MSGTX MMMX
cycle: 2

Station Type Date Time Source
MMPR TAF 2021/07/30 06:16 UTC NOAA

TAF MMPR 300408Z 3006/3112 34005KT P6SM SCT025 BKN100 TX32/3019Z TN23/3012Z
FM301800 23010KT P6SM SCT025 SCT120 BKN250
FM310000 34005KT 6SM -RA BKN020CB BKN080 OVC250
TEMPO 3105/3109 3SM TSRA BKN020CB

Example: see airport list